Time;durP1;ratioP1;P1;durP2;ratioP2;P2;SDS_P1;SDS_P2;PMS_P1;PMS_P2;Temp;Humidity;BMP_temperature;BMP_pressure;BME280_temperature;BME280_humidity;BME280_pressure;Samples;Min_cycle;Max_cycle;Signal;HPM_P1;HPM_P2
2023/07/02 07:23:03;;;;;;;11.80;6.60;;;;;;;-145.79;55.33;76792.31;5316768;27;20415;-70
2023/07/02 07:25:34;;;;;;;11.23;6.78;;;;;;;-145.79;54.18;76794.41;5319668;28;20105;-70
2023/07/02 07:28:05;;;;;;;9.35;6.72;;;;;;;-145.79;53.87;76811.38;5301108;28;20502;-70
2023/07/02 07:30:37;;;;;;;12.20;6.15;;;;;;;-145.79;54.10;76813.50;5296281;28;20056;-70
2023/07/02 07:33:10;;;;;;;16.30;6.38;;;;;;;-145.79;54.60;76807.13;5302034;28;20031;-70
2023/07/02 07:35:42;;;;;;;12.20;7.95;;;;;;;-145.79;55.17;76796.53;5305691;28;20024;-70
2023/07/02 07:38:14;;;;;;;8.75;5.45;;;;;;;-145.79;54.54;76796.53;5300441;28;20090;-70
2023/07/02 07:40:45;;;;;;;10.40;6.40;;;;;;;-145.79;54.27;76813.50;5300084;28;20070;-70
2023/07/02 07:43:17;;;;;;;10.95;6.15;;;;;;;-145.79;54.16;76807.13;5298464;28;20036;-70
2023/07/02 07:45:48;;;;;;;12.18;6.28;;;;;;;-145.79;53.48;76788.06;5292673;28;20602;-70
2023/07/02 07:48:21;;;;;;;10.60;5.85;;;;;;;-145.79;53.26;76813.50;5299623;28;20016;-70
2023/07/02 07:50:52;;;;;;;11.13;6.82;;;;;;;-145.79;53.91;76798.66;5288207;28;20035;-69
2023/07/02 07:53:23;;;;;;;14.00;7.07;;;;;;;-145.79;53.97;76788.06;5291763;28;20024;-70
2023/07/02 07:55:55;;;;;;;10.05;6.35;;;;;;;-145.79;54.18;76779.59;5296918;28;20024;-70
2023/07/02 07:58:26;;;;;;;13.75;5.63;;;;;;;-145.79;53.06;76764.75;5287828;28;20017;-71
2023/07/02 08:00:58;;;;;;;8.57;5.70;;;;;;;-145.79;51.46;76779.59;5301897;28;20162;-70
2023/07/02 08:03:29;;;;;;;8.85;5.60;;;;;;;-145.79;51.30;76769.00;5321004;28;20024;-70
2023/07/02 08:06:03;;;;;;;7.95;5.55;;;;;;;-145.79;50.74;76756.28;5314884;28;20451;-71
2023/07/02 08:08:34;;;;;;;8.32;5.35;;;;;;;-145.79;50.55;76754.16;5279276;28;20020;-71
2023/07/02 08:11:06;;;;;;;8.20;5.55;;;;;;;-145.79;50.05;76745.69;5278840;28;20165;-70
2023/07/02 08:13:37;;;;;;;8.40;5.30;;;;;;;-145.79;50.50;76747.78;5278147;28;20100;-71
2023/07/02 08:16:09;;;;;;;10.27;5.55;;;;;;;-145.79;50.58;76760.50;5290690;28;20118;-69
2023/07/02 08:18:41;;;;;;;11.10;5.63;;;;;;;-145.79;50.93;76752.03;5299974;28;20024;-70
2023/07/02 08:21:12;;;;;;;11.32;6.20;;;;;;;-145.79;50.23;76732.97;5299052;28;20032;-70
2023/07/02 08:23:47;;;;;;;8.50;5.38;;;;;;;-145.79;48.80;76743.56;5290900;28;20024;-70
2023/07/02 08:26:18;;;;;;;12.25;5.90;;;;;;;-145.79;48.56;76762.63;5278934;28;20025;-70
2023/07/02 08:28:50;;;;;;;13.18;6.70;;;;;;;-145.79;49.08;76760.50;5277607;28;20047;-70
2023/07/02 08:31:21;;;;;;;10.15;5.43;;;;;;;-145.79;49.81;76749.91;5278610;28;20021;-70
2023/07/02 08:33:52;;;;;;;10.00;5.93;;;;;;;-145.79;48.39;76756.28;5278033;28;20021;-70
2023/07/02 08:36:24;;;;;;;8.63;5.72;;;;;;;-145.79;48.95;76754.16;5302405;28;20341;-68
2023/07/02 08:38:55;;;;;;;10.27;6.03;;;;;;;-145.79;49.15;76743.56;5305818;28;20471;-71
2023/07/02 08:41:28;;;;;;;9.00;5.35;;;;;;;-145.79;49.78;76758.38;5276198;28;20021;-70
2023/07/02 08:44:00;;;;;;;14.98;6.38;;;;;;;-145.79;48.60;76777.47;5283045;28;20024;-71
2023/07/02 08:46:31;;;;;;;11.30;6.65;;;;;;;-145.79;49.22;76771.09;5306143;28;20024;-69
2023/07/02 08:49:03;;;;;;;8.88;5.38;;;;;;;-145.79;48.51;76745.69;5305425;28;20085;-70
2023/07/02 08:51:35;;;;;;;8.63;5.65;;;;;;;-145.79;48.77;76737.19;5305499;28;20413;-70
2023/07/02 08:54:07;;;;;;;9.88;5.35;;;;;;;-145.79;48.46;76728.72;5305205;28;20030;-70
2023/07/02 08:56:39;;;;;;;9.50;5.85;;;;;;;-145.79;47.83;76722.34;5274365;28;20036;-70
2023/07/02 08:59:11;;;;;;;7.88;5.60;;;;;;;-145.79;50.11;76709.66;5289841;28;20035;-71
2023/07/02 09:01:52;;;;;;;10.52;6.07;;;;;;;-145.79;48.16;76720.25;5291232;28;20045;-70
2023/07/02 09:04:25;;;;;;;11.15;5.95;;;;;;;-145.79;50.45;76677.84;5277283;28;20411;-69
2023/07/02 09:07:03;;;;;;;9.38;5.43;;;;;;;-145.79;49.07;76667.25;5291585;28;20382;-70
2023/07/02 09:09:49;;;;;;;7.03;4.82;;;;;;;-145.79;48.54;76639.72;5282963;28;20075;-71
2023/07/02 09:12:28;;;;;;;10.50;5.60;;;;;;;-145.79;47.43;76622.75;5281408;28;20664;-70
2023/07/02 09:15:05;;;;;;;9.88;5.82;;;;;;;-145.79;48.68;76633.34;5288398;28;20154;-70
2023/07/02 09:17:37;;;;;;;8.93;4.88;;;;;;;-145.79;46.49;76616.41;5288101;28;20066;-71
2023/07/02 09:20:09;;;;;;;8.23;6.65;;;;;;;-145.79;46.19;76614.28;5289584;28;20044;-69
2023/07/02 09:22:43;;;;;;;10.27;5.43;;;;;;;-145.79;44.63;76622.75;5273269;28;20129;-70
2023/07/02 09:25:16;;;;;;;7.82;4.85;;;;;;;-145.79;43.66;76631.22;5289138;28;20535;-69
2023/07/02 09:27:47;;;;;;;8.13;5.28;;;;;;;-145.79;43.76;76650.31;5304237;28;20024;-69
2023/07/02 09:30:19;;;;;;;10.68;5.55;;;;;;;-145.79;44.52;76616.41;5287998;28;20111;-70
2023/07/02 09:32:50;;;;;;;9.65;6.40;;;;;;;-145.79;44.59;76629.13;5265703;28;20040;-72
2023/07/02 09:35:22;;;;;;;12.48;8.93;;;;;;;-145.79;43.98;76610.03;5278214;28;20434;-71
2023/07/02 09:37:54;;;;;;;10.80;6.05;;;;;;;-145.79;44.05;76607.91;5303577;28;20046;-71
2023/07/02 09:40:28;;;;;;;12.57;6.05;;;;;;;-145.79;44.95;76641.84;5305040;28;20024;-72
2023/07/02 09:43:00;;;;;;;11.43;6.85;;;;;;;-145.79;45.43;76635.47;5305454;28;20094;-72
2023/07/02 09:45:46;;;;;;;10.88;6.32;;;;;;;-145.79;45.59;76635.47;5290603;28;20024;-70
2023/07/02 09:48:19;;;;;;;8.38;5.22;;;;;;;-145.79;46.05;76610.03;5270077;28;20131;-71
2023/07/02 09:50:51;;;;;;;8.93;5.47;;;;;;;-145.79;45.50;76610.03;5292952;28;20103;-70
2023/07/02 09:53:22;;;;;;;10.65;6.18;;;;;;;-145.79;45.75;76627.00;5290075;28;20425;-72
2023/07/02 09:55:54;;;;;;;10.45;5.35;;;;;;;-145.79;46.04;76605.81;5286019;28;20035;-72
2023/07/02 09:58:25;;;;;;;8.25;5.70;;;;;;;-145.79;45.95;76597.31;5303163;28;20534;-73
2023/07/02 10:01:00;;;;;;;9.23;6.15;;;;;;;-145.79;46.51;76571.91;5298316;28;20456;-73
2023/07/02 10:03:31;;;;;;;10.90;5.70;;;;;;;-145.79;45.95;76580.38;5287457;28;20032;-72
2023/07/02 10:06:05;;;;;;;12.07;5.85;;;;;;;-145.79;46.25;76567.66;5293693;28;20016;-70
2023/07/02 10:08:36;;;;;;;9.90;5.43;;;;;;;-145.79;45.45;76580.38;5303908;28;20081;-70
2023/07/02 10:11:09;;;;;;;8.77;5.60;;;;;;;-145.79;45.86;76595.22;5302915;28;20414;-71
2023/07/02 10:13:41;;;;;;;9.98;5.70;;;;;;;-145.79;46.02;76584.59;5303041;28;20047;-69
2023/07/02 10:16:12;;;;;;;11.45;6.03;;;;;;;-145.79;47.04;76590.97;5303074;28;20019;-69
2023/07/02 10:18:46;;;;;;;8.73;6.22;;;;;;;-145.79;46.92;76629.13;5303413;28;20361;-69
2023/07/02 10:21:18;;;;;;;10.57;6.20;;;;;;;-145.79;46.31;76654.53;5291051;28;20135;-70
2023/07/02 10:23:50;;;;;;;11.40;5.65;;;;;;;-145.79;47.44;76614.28;5290888;28;20028;-70
2023/07/02 10:26:21;;;;;;;10.93;6.03;;;;;;;-145.79;46.73;76624.88;5301021;28;20020;-71
2023/07/02 10:28:58;;;;;;;11.65;6.28;;;;;;;-145.79;46.72;76607.91;5303576;28;20054;-69
2023/07/02 10:31:30;;;;;;;12.05;6.45;;;;;;;-145.79;46.20;76599.44;5287251;28;20028;-71
2023/07/02 10:34:01;;;;;;;9.75;6.05;;;;;;;-145.79;45.14;76567.66;5297365;28;20537;-71
2023/07/02 10:36:32;;;;;;;13.45;6.68;;;;;;;-145.79;45.46;76550.69;5289314;28;20012;-71
2023/07/02 10:39:05;;;;;;;10.55;5.70;;;;;;;-145.79;45.95;76546.47;5295382;28;20111;-69
2023/07/02 10:41:36;;;;;;;13.20;6.82;;;;;;;-145.79;45.11;76535.88;5278245;28;20033;-68
2023/07/02 10:44:09;;;;;;;12.73;6.20;;;;;;;-145.79;44.25;76533.75;5303101;28;20070;-69
2023/07/02 10:46:48;;;;;;;16.35;6.85;;;;;;;-145.79;44.08;76544.34;5294704;28;20035;-69
2023/07/02 10:49:20;;;;;;;12.13;7.82;;;;;;;-145.79;44.21;76538.00;5294793;28;20115;-69
2023/07/02 10:52:07;;;;;;;11.77;7.10;;;;;;;-145.79;44.53;76533.75;5302896;28;20416;-71
2023/07/02 10:54:46;;;;;;;15.73;8.65;;;;;;;-145.79;44.79;76586.72;5285965;28;20492;-70
2023/07/02 10:57:22;;;;;;;11.43;7.65;;;;;;;-145.79;45.75;76612.16;5297013;28;20028;-71
2023/07/02 11:00:04;;;;;;;11.68;7.38;;;;;;;-145.79;46.27;76584.59;5301427;28;20028;-70
2023/07/02 11:02:37;;;;;;;12.35;7.40;;;;;;;-145.79;45.82;76550.69;5300978;28;20466;-70
2023/07/02 11:05:12;;;;;;;13.98;7.05;;;;;;;-145.79;45.47;76521.03;5290167;28;20086;-70
2023/07/02 11:07:44;;;;;;;12.02;7.93;;;;;;;-145.79;45.96;76563.41;5298007;28;20035;-67
2023/07/02 11:10:19;;;;;;;12.50;7.72;;;;;;;-145.79;45.23;76601.56;5300874;28;20024;-69
2023/07/02 11:12:50;;;;;;;13.27;7.63;;;;;;;-145.79;45.88;76582.50;5261692;28;20511;-68
2023/07/02 11:15:22;;;;;;;11.85;8.82;;;;;;;-145.79;45.69;76586.72;5261603;28;20124;-69
2023/07/02 11:17:56;;;;;;;15.45;7.40;;;;;;;-145.79;46.28;76593.09;5267527;28;20044;-70
2023/07/02 11:20:33;;;;;;;13.90;8.07;;;;;;;-145.79;46.52;76595.22;5294780;28;20029;-70
2023/07/02 11:23:16;;;;;;;11.50;7.57;;;;;;;-145.79;47.69;76622.75;5261396;28;20054;-70
2023/07/02 11:26:13;;;;;;;15.50;7.72;;;;;;;-145.79;47.63;76597.31;5297788;28;20032;-68
2023/07/02 11:28:50;;;;;;;11.80;8.23;;;;;;;-145.79;48.21;76597.31;5270863;28;20098;-69
2023/07/02 11:31:26;;;;;;;14.27;8.85;;;;;;;-145.79;47.79;76601.56;5273018;28;20040;-68
2023/07/02 11:33:58;;;;;;;13.23;7.25;;;;;;;-145.79;47.76;76576.13;5259423;28;20029;-69
2023/07/02 11:36:29;;;;;;;13.48;7.20;;;;;;;-145.79;47.58;76548.59;5277290;28;20065;-70
2023/07/02 11:39:01;;;;;;;13.88;7.85;;;;;;;-145.79;47.47;76576.13;5284309;28;20016;-69
2023/07/02 11:41:43;;;;;;;13.63;8.07;;;;;;;-145.79;47.81;76567.66;5280078;28;20032;-69
2023/07/02 11:44:15;;;;;;;30.10;25.45;;;;;;;-145.79;47.21;76633.34;5279438;28;20028;-69
2023/07/02 11:46:47;;;;;;;13.77;7.70;;;;;;;-145.79;48.09;76588.84;5276028;28;20036;-68
2023/07/02 11:49:19;;;;;;;12.35;7.68;;;;;;;-145.79;47.68;76576.13;5264100;28;20028;-69
2023/07/02 11:51:50;;;;;;;11.45;7.50;;;;;;;-145.79;46.52;76559.19;5270950;28;20135;-67
2023/07/02 11:54:21;;;;;;;15.70;8.23;;;;;;;-145.79;46.09;76535.88;5274255;28;20021;-72
2023/07/02 11:56:53;;;;;;;14.07;7.28;;;;;;;-145.79;46.51;76550.69;5259664;28;20053;-72
2023/07/02 11:59:24;;;;;;;10.30;7.25;;;;;;;-145.79;46.28;76559.19;5274309;28;20029;-71
2023/07/02 12:01:57;;;;;;;12.10;7.45;;;;;;;-145.79;46.03;76516.78;5279987;28;20068;-72
2023/07/02 12:04:28;;;;;;;12.95;7.28;;;;;;;-145.79;45.05;76512.56;5274884;28;20025;-72
2023/07/02 12:07:03;;;;;;;11.88;6.63;;;;;;;-145.79;44.84;76525.28;5260365;28;20071;-71
2023/07/02 12:09:35;;;;;;;12.67;7.40;;;;;;;-145.79;45.56;76571.91;5273940;28;20032;-71
2023/07/02 12:12:07;;;;;;;10.05;7.45;;;;;;;-145.79;46.25;76554.94;5284637;28;20291;-72
2023/07/02 12:14:41;;;;;;;11.02;7.32;;;;;;;-145.79;46.11;76546.47;5287101;28;20393;-72
2023/07/02 12:17:13;;;;;;;8.82;6.43;;;;;;;-145.79;43.98;76563.41;5278974;28;20546;-71
2023/07/02 12:19:44;;;;;;;9.20;5.68;;;;;;;-145.79;43.11;76586.72;5285005;28;20127;-72
2023/07/02 12:22:17;;;;;;;13.10;6.90;;;;;;;-145.79;43.44;76574.00;5272580;28;20071;-72
2023/07/02 12:24:50;;;;;;;10.95;6.28;;;;;;;-145.79;43.67;76548.59;5278059;28;20425;-71
2023/07/02 12:27:21;;;;;;;10.00;6.25;;;;;;;-145.79;43.14;76554.94;5285030;28;20028;-71
2023/07/02 12:29:53;;;;;;;14.90;11.38;;;;;;;-145.79;41.29;76554.94;5285717;28;20502;-72
2023/07/02 12:32:24;;;;;;;8.50;5.78;;;;;;;-145.79;40.78;76525.28;5285440;28;20460;-70
2023/07/02 12:34:55;;;;;;;8.80;5.57;;;;;;;-145.79;39.52;76508.31;5284848;28;20389;-72
2023/07/02 12:37:27;;;;;;;9.02;5.13;;;;;;;-145.79;39.62;76527.38;5285689;28;20016;-71
2023/07/02 12:39:58;;;;;;;8.27;5.03;;;;;;;-145.79;40.39;76516.78;5282261;28;20158;-74
2023/07/02 12:42:29;;;;;;;5.30;4.03;;;;;;;-145.79;40.25;76495.59;5285523;28;20028;-71
2023/07/02 12:45:01;;;;;;;7.97;4.80;;;;;;;-145.79;40.06;76482.88;5285597;28;20100;-71
2023/07/02 12:47:32;;;;;;;8.40;4.60;;;;;;;-145.79;40.17;76429.91;5287151;28;20381;-71
2023/07/02 12:50:04;;;;;;;10.65;5.15;;;;;;;-145.79;38.30;76425.66;5306151;28;20024;-69
2023/07/02 12:52:36;;;;;;;6.78;4.25;;;;;;;-145.79;38.04;76446.88;5305569;28;20028;-69
2023/07/02 12:55:08;;;;;;;6.45;4.55;;;;;;;-145.79;37.12;76440.50;5297375;28;20463;-71
2023/07/02 12:57:39;;;;;;;8.00;4.07;;;;;;;-145.79;37.24;76444.75;5297839;28;20032;-71
2023/07/02 13:00:11;;;;;;;8.35;4.55;;;;;;;-145.79;37.28;76453.22;5306062;28;20027;-71
2023/07/02 13:02:42;;;;;;;7.50;4.13;;;;;;;-145.79;36.97;76434.16;5305216;28;20429;-72
2023/07/02 13:05:14;;;;;;;9.98;4.35;;;;;;;-145.79;37.02;76402.38;5305950;28;20475;-72
2023/07/02 13:07:45;;;;;;;5.45;4.05;;;;;;;-145.79;36.85;76376.94;5306133;28;20031;-72
2023/07/02 13:10:19;;;;;;;7.72;4.20;;;;;;;-145.79;36.68;76351.50;5304789;28;20491;-71
2023/07/02 13:12:51;;;;;;;7.68;4.32;;;;;;;-145.79;37.38;76338.78;5286421;28;20063;-71
2023/07/02 13:15:22;;;;;;;9.90;6.18;;;;;;;-145.79;36.57;76343.03;5262952;28;20399;-72
2023/07/02 13:17:56;;;;;;;10.80;4.40;;;;;;;-145.79;36.43;76317.59;5264168;28;20082;-72
2023/07/02 13:20:27;;;;;;;5.80;4.43;;;;;;;-145.79;36.40;76340.91;5263818;28;20377;-72
2023/07/02 13:22:59;;;;;;;5.43;4.13;;;;;;;-145.79;36.01;76334.56;5263237;28;20025;-72
2023/07/02 13:25:30;;;;;;;15.27;12.52;;;;;;;-145.79;36.41;76334.56;5275704;28;20475;-73
2023/07/02 13:28:02;;;;;;;7.13;4.60;;;;;;;-145.79;36.62;76349.38;5305133;28;20032;-71
2023/07/02 13:30:33;;;;;;;6.50;4.10;;;;;;;-145.79;37.10;76351.50;5273342;28;20051;-70
2023/07/02 13:33:05;;;;;;;6.95;4.13;;;;;;;-145.79;36.35;76321.84;5264096;28;20127;-72
2023/07/02 13:35:37;;;;;;;10.25;5.22;;;;;;;-145.79;36.25;76304.88;5263702;28;20048;-71
2023/07/02 13:38:11;;;;;;;7.07;4.43;;;;;;;-145.79;36.16;76285.81;5262851;28;20040;-71
2023/07/02 13:40:42;;;;;;;11.65;7.82;;;;;;;-145.79;36.03;76262.50;5263525;28;20020;-71
2023/07/02 13:43:13;;;;;;;11.73;8.00;;;;;;;-145.79;36.61;76270.97;5262953;28;20021;-71
2023/07/02 13:45:45;;;;;;;8.57;5.22;;;;;;;-145.79;36.29;76292.16;5263975;28;20025;-72
2023/07/02 13:48:16;;;;;;;9.85;4.88;;;;;;;-145.79;36.47;76326.06;5263796;28;20025;-72
2023/07/02 13:50:48;;;;;;;9.63;5.03;;;;;;;-145.79;37.27;76355.75;5262632;28;20017;-72
2023/07/02 13:53:19;;;;;;;9.82;4.72;;;;;;;-145.79;37.28;76364.22;5263476;28;20499;-68
2023/07/02 13:55:51;;;;;;;8.50;4.47;;;;;;;-145.79;37.33;76353.63;5276431;28;20051;-67
2023/07/02 13:58:23;;;;;;;8.70;5.07;;;;;;;-145.79;37.40;76304.88;5284809;28;20492;-70
2023/07/02 14:00:54;;;;;;;7.70;4.60;;;;;;;-145.79;36.67;76343.03;5272943;28;20052;-69
2023/07/02 14:03:28;;;;;;;7.72;4.28;;;;;;;-145.79;36.96;76275.22;5274119;28;20040;-70
2023/07/02 14:06:00;;;;;;;6.87;4.23;;;;;;;-145.79;37.02;76251.91;5283449;28;20057;-69
2023/07/02 14:08:31;;;;;;;8.50;4.40;;;;;;;-145.79;35.96;76224.38;5285447;28;20091;-70
2023/07/02 14:11:02;;;;;;;7.68;4.15;;;;;;;-145.79;35.47;76213.75;5287146;28;20287;-70
2023/07/02 14:13:40;;;;;;;8.75;4.50;;;;;;;-145.79;35.65;76247.66;5284754;28;20357;-71
2023/07/02 14:16:11;;;;;;;11.38;5.00;;;;;;;-145.79;36.32;76283.69;5284541;28;20033;-77
2023/07/02 14:18:43;;;;;;;10.35;4.85;;;;;;;-145.79;36.54;76266.75;5288342;28;20053;-70
2023/07/02 14:21:14;;;;;;;7.75;4.00;;;;;;;-145.79;36.71;76224.38;5283662;28;20575;-71
2023/07/02 14:23:46;;;;;;;5.50;4.00;;;;;;;-145.79;36.24;76234.97;5282924;28;20024;-70
2023/07/02 14:26:17;;;;;;;7.38;4.30;;;;;;;-145.79;35.68;76266.75;5283875;28;20044;-71
2023/07/02 14:28:48;;;;;;;7.25;4.70;;;;;;;-145.79;35.99;76296.41;5282421;28;20027;-70
2023/07/02 14:31:20;;;;;;;8.32;4.70;;;;;;;-145.79;36.09;76364.22;5283391;28;20106;-71
2023/07/02 14:33:51;;;;;;;8.57;5.63;;;;;;;-145.79;36.35;76309.13;5281791;28;20124;-71
2023/07/02 14:36:22;;;;;;;9.07;4.95;;;;;;;-145.79;36.10;76304.88;5282225;28;20106;-72
2023/07/02 14:38:54;;;;;;;10.25;4.70;;;;;;;-145.79;35.95;76266.75;5282432;28;20048;-70
2023/07/02 14:41:26;;;;;;;8.48;4.90;;;;;;;-145.79;35.65;76234.97;5281541;28;20090;-70
2023/07/02 14:43:58;;;;;;;6.47;4.65;;;;;;;-145.79;35.73;76232.84;5279890;28;20103;-71
2023/07/02 14:46:29;;;;;;;7.53;4.90;;;;;;;-145.79;35.24;76220.13;5281401;28;20079;-70
2023/07/02 14:49:03;;;;;;;7.80;5.43;;;;;;;-145.79;35.59;76220.13;5282437;28;20052;-71
2023/07/02 14:51:35;;;;;;;8.20;5.45;;;;;;;-145.79;35.35;76220.13;5280548;28;20046;-71
2023/07/02 14:54:07;;;;;;;8.73;5.38;;;;;;;-145.79;34.92;76213.75;5278418;28;20021;-72
2023/07/02 14:56:38;;;;;;;10.40;7.25;;;;;;;-145.79;35.19;76171.38;5278348;28;20020;-70
2023/07/02 14:59:09;;;;;;;10.85;5.45;;;;;;;-145.79;34.57;76186.22;5282444;28;20013;-70
2023/07/02 15:01:40;;;;;;;9.85;6.32;;;;;;;-145.79;34.69;76190.47;5279430;28;20081;-70
2023/07/02 15:04:14;;;;;;;8.25;6.00;;;;;;;-145.79;35.31;76177.75;5282508;28;20345;-71
2023/07/02 15:06:46;;;;;;;8.48;5.40;;;;;;;-145.79;34.86;76156.56;5276430;28;20028;-70
2023/07/02 15:09:18;;;;;;;8.98;4.95;;;;;;;-145.79;35.24;76133.25;5283670;28;20031;-70
2023/07/02 15:11:49;;;;;;;9.63;5.50;;;;;;;-145.79;34.55;76171.38;5278007;28;20051;-71
2023/07/02 15:14:21;;;;;;;8.43;4.82;;;;;;;-145.79;34.95;76169.25;5281922;28;20448;-71
2023/07/02 15:16:52;;;;;;;12.07;5.32;;;;;;;-145.79;35.34;76188.34;5281280;28;20020;-72
2023/07/02 15:19:23;;;;;;;8.63;6.15;;;;;;;-145.79;35.34;76211.66;5282175;28;20024;-71
2023/07/02 15:21:55;;;;;;;8.60;5.50;;;;;;;-145.79;35.42;76220.13;5278901;28;20040;-70
2023/07/02 15:24:26;;;;;;;8.43;5.63;;;;;;;-145.79;35.56;76230.72;5282046;28;20048;-70
2023/07/02 15:26:58;;;;;;;10.55;5.60;;;;;;;-145.79;35.83;76258.25;5281957;28;20028;-70
2023/07/02 15:29:30;;;;;;;8.70;4.78;;;;;;;-145.79;36.18;76249.78;5280691;28;20024;-71
2023/07/02 15:32:02;;;;;;;10.57;4.80;;;;;;;-145.79;35.89;76245.56;5281663;28;20027;-71
2023/07/02 15:34:36;;;;;;;8.82;5.60;;;;;;;-145.79;36.13;76239.19;5282130;28;20524;-71
2023/07/02 15:37:08;;;;;;;7.78;4.80;;;;;;;-145.79;36.41;76249.78;5278113;28;20028;-70
2023/07/02 15:39:39;;;;;;;9.38;5.70;;;;;;;-145.79;36.32;76207.41;5282238;28;20020;-71
2023/07/02 15:42:10;;;;;;;9.65;5.90;;;;;;;-145.79;36.29;76194.69;5281922;28;20029;-71
2023/07/02 15:44:45;;;;;;;9.10;5.82;;;;;;;-145.79;36.23;76190.47;5284826;28;20017;-71
2023/07/02 15:47:17;;;;;;;;;;;;;;;-145.79;35.67;76203.16;5282621;28;20088;-69
2023/07/02 15:49:51;;;;;;;7.80;5.60;;;;;;;-145.79;36.35;76220.13;5285631;28;19949;-69
2023/07/02 15:52:23;;;;;;;14.73;5.78;;;;;;;-145.79;35.80;76211.66;5283766;28;20278;-67
2023/07/02 15:54:57;;;;;;;9.88;5.60;;;;;;;-145.79;36.54;76213.75;5286132;28;20047;-67
2023/07/02 15:57:28;;;;;;;9.57;5.20;;;;;;;-145.79;35.76;76203.16;5284140;28;20016;-68
2023/07/02 16:00:00;;;;;;;8.50;5.15;;;;;;;-145.79;36.10;76192.56;5284600;28;20407;-67
2023/07/02 16:02:31;;;;;;;9.07;5.57;;;;;;;-145.79;35.86;76203.16;5284466;28;20016;-67
2023/07/02 16:05:06;;;;;;;11.07;5.82;;;;;;;-145.79;35.86;76194.69;5285086;28;20021;-68
2023/07/02 16:07:37;;;;;;;9.38;5.47;;;;;;;-145.79;35.50;76190.47;5285625;28;20116;-67
2023/07/02 16:10:09;;;;;;;12.45;5.97;;;;;;;-145.79;35.90;76177.75;5271803;28;20540;-69
2023/07/02 16:12:42;;;;;;;8.20;5.68;;;;;;;-145.79;35.89;76173.50;5282622;28;20059;-69
2023/07/02 16:15:14;;;;;;;11.07;6.25;;;;;;;-145.79;35.98;76173.50;5307368;28;20108;-69
2023/07/02 16:17:47;;;;;;;9.45;5.32;;;;;;;-145.79;35.87;76160.78;5306599;28;20091;-69
2023/07/02 16:20:19;;;;;;;11.50;6.13;;;;;;;-145.79;36.20;76179.88;5278825;28;20017;-69
2023/07/02 16:22:50;;;;;;;11.80;6.93;;;;;;;-145.79;36.05;76224.38;5265513;28;20095;-69
2023/07/02 16:25:21;;;;;;;12.27;5.70;;;;;;;-145.79;36.18;76224.38;5264338;28;20455;-70
2023/07/02 16:27:53;;;;;;;9.68;5.60;;;;;;;-145.79;36.32;76234.97;5265300;28;20112;-68
2023/07/02 16:30:25;;;;;;;8.75;6.03;;;;;;;-145.79;36.29;76230.72;5284560;28;20095;-68
2023/07/02 16:33:05;;;;;;;9.20;5.65;;;;;;;-145.79;36.62;76241.31;5281829;28;20419;-68
2023/07/02 16:35:37;;;;;;;9.82;5.30;;;;;;;-145.79;36.51;76249.78;5282261;28;20070;-68
2023/07/02 16:38:09;;;;;;;10.95;6.43;;;;;;;-145.79;36.79;76264.63;5282584;28;20494;-67
2023/07/02 16:40:41;;;;;;;11.57;5.82;;;;;;;-145.79;36.79;76279.47;5284443;28;20045;-69
2023/07/02 16:43:12;;;;;;;8.57;6.15;;;;;;;-145.79;36.94;76270.97;5280961;28;20098;-69
2023/07/02 16:45:56;;;;;;;13.30;6.28;;;;;;;-145.79;36.93;76247.66;5284766;28;20496;-70
2023/07/02 16:48:28;;;;;;;10.52;6.25;;;;;;;-145.79;36.99;76270.97;5283905;28;20012;-69
2023/07/02 16:51:01;;;;;;;9.00;5.63;;;;;;;-145.79;37.21;76283.69;5283255;28;20098;-69
2023/07/02 16:53:38;;;;;;;9.13;6.10;;;;;;;-145.79;37.27;76268.84;5284532;28;20024;-69
